Time;durP1;ratioP1;P1;durP2;ratioP2;P2;SDS_P1;SDS_P2;PMS_P1;PMS_P2;Temp;Humidity;BMP_temperature;BMP_pressure;BME280_temperature;BME280_humidity;BME280_pressure;Samples;Min_cycle;Max_cycle;Signal;HPM_P1;HPM_P2
2021/07/12 00:02:12;;;;;;;3.25;1.40;;;;;;;25.80;47.75;100919.44;4993170;28;20078;-65
2021/07/12 00:04:38;;;;;;;3.05;1.77;;;;;;;25.75;47.60;100911.91;4993076;28;20097;-65
2021/07/12 00:07:05;;;;;;;1.75;1.30;;;;;;;25.75;47.52;100920.00;4992366;28;20418;-64
2021/07/12 00:09:34;;;;;;;2.30;1.65;;;;;;;25.74;47.52;100914.81;4993068;28;20050;-66
2021/07/12 00:12:01;;;;;;;2.15;1.50;;;;;;;25.72;47.56;100906.91;4993053;28;20596;-65
2021/07/12 00:14:27;;;;;;;3.10;1.30;;;;;;;25.72;47.64;100911.44;4992940;28;20105;-65
2021/07/12 00:16:54;;;;;;;3.65;1.48;;;;;;;25.69;47.47;100923.41;4992797;28;20490;-64
2021/07/12 00:19:21;;;;;;;2.58;1.80;;;;;;;25.66;47.67;100918.41;4993122;28;20047;-65
2021/07/12 00:21:50;;;;;;;2.67;2.00;;;;;;;25.59;48.06;100920.97;4992944;28;20104;-64
2021/07/12 00:24:19;;;;;;;3.22;2.17;;;;;;;25.53;48.33;100920.88;4992960;28;20046;-66
2021/07/12 00:26:47;;;;;;;5.57;2.47;;;;;;;25.45;48.46;100923.63;4992754;28;20046;-65
2021/07/12 00:29:14;;;;;;;3.28;2.80;;;;;;;25.41;49.03;100915.09;4992939;28;20046;-64
2021/07/12 00:31:41;;;;;;;5.60;2.75;;;;;;;25.35;49.29;100919.28;4992919;28;20121;-64
2021/07/12 00:34:10;;;;;;;4.65;3.03;;;;;;;25.31;49.52;100917.16;4992907;28;20121;-66
2021/07/12 00:36:36;;;;;;;3.00;2.58;;;;;;;25.27;50.04;100912.13;4992651;28;20050;-64
2021/07/12 00:39:04;;;;;;;5.57;2.75;;;;;;;25.20;50.42;100913.84;4992900;28;20112;-64
2021/07/12 00:41:31;;;;;;;3.25;2.20;;;;;;;25.20;50.53;100921.09;4992685;28;20101;-64
2021/07/12 00:44:01;;;;;;;3.42;2.67;;;;;;;25.16;50.67;100914.41;4992761;28;20047;-64
2021/07/12 00:46:27;;;;;;;2.50;2.30;;;;;;;25.15;50.59;100912.75;4992761;28;20062;-66
2021/07/12 00:48:54;;;;;;;3.78;2.30;;;;;;;25.14;50.33;100924.50;4992580;28;20085;-65
2021/07/12 00:51:21;;;;;;;3.30;2.92;;;;;;;25.10;50.37;100919.50;4992752;28;20073;-66
2021/07/12 00:53:50;;;;;;;5.35;2.90;;;;;;;25.09;50.29;100928.56;4992638;28;20046;-64
2021/07/12 00:56:17;;;;;;;5.45;3.13;;;;;;;25.06;50.36;100920.84;4992596;28;20050;-66
2021/07/12 00:58:43;;;;;;;5.70;3.50;;;;;;;25.05;50.22;100932.63;4992527;28;20458;-65
2021/07/12 01:01:11;;;;;;;3.20;2.63;;;;;;;25.01;50.24;100936.66;4992683;28;20046;-66
2021/07/12 01:03:38;;;;;;;3.90;2.85;;;;;;;24.98;50.29;100937.03;4992417;28;20070;-65
2021/07/12 01:06:05;;;;;;;5.07;3.10;;;;;;;24.99;50.49;100941.38;4994059;28;20093;-65
2021/07/12 01:08:32;;;;;;;3.63;3.17;;;;;;;24.96;50.70;100927.47;4996016;28;20050;-64
2021/07/12 01:11:04;;;;;;;4.88;3.00;;;;;;;24.94;50.55;100927.66;4996274;28;20046;-66
2021/07/12 01:14:02;;;;;;;3.90;2.90;;;;;;;24.89;51.20;100930.84;4996131;28;20047;-65
2021/07/12 01:16:37;;;;;;;3.70;2.97;;;;;;;24.87;51.67;100932.06;4995781;28;20054;-66
2021/07/12 01:19:50;;;;;;;8.27;3.10;;;;;;;24.84;51.90;100932.41;4996115;28;20054;-65
2021/07/12 01:22:32;;;;;;;7.95;3.97;;;;;;;24.80;52.28;100939.97;4995820;28;20046;-66
2021/07/12 01:25:02;;;;;;;4.28;3.10;;;;;;;24.79;51.94;100940.97;4995920;28;20108;-64
2021/07/12 01:27:45;;;;;;;4.15;2.88;;;;;;;24.77;52.31;100943.00;4995649;28;20583;-65
2021/07/12 01:30:16;;;;;;;4.82;3.30;;;;;;;24.76;52.63;100944.03;4995764;28;20046;-64
2021/07/12 01:33:04;;;;;;;4.22;2.78;;;;;;;24.73;52.40;100939.00;4995630;28;20054;-65
2021/07/12 01:35:36;;;;;;;4.10;2.97;;;;;;;24.75;52.35;100945.03;4995593;28;20078;-64
2021/07/12 01:38:22;;;;;;;4.07;2.70;;;;;;;24.72;52.58;100946.22;4995559;28;20121;-66
2021/07/12 01:40:53;;;;;;;3.97;3.28;;;;;;;24.71;52.45;100941.88;4995448;28;20047;-65
2021/07/12 01:43:26;;;;;;;4.85;3.10;;;;;;;24.71;52.73;100947.22;4995478;28;20050;-64
2021/07/12 01:46:10;;;;;;;4.97;3.00;;;;;;;24.69;52.62;100945.75;4995336;28;20046;-64
2021/07/12 01:48:52;;;;;;;4.68;3.88;;;;;;;24.64;52.96;100942.72;4995275;28;20047;-66
2021/07/12 01:51:24;;;;;;;4.60;3.65;;;;;;;24.63;52.75;100939.19;4995333;28;20503;-66
2021/07/12 01:54:11;;;;;;;5.25;3.25;;;;;;;24.62;52.66;100941.03;4995111;28;20407;-65
2021/07/12 01:56:40;;;;;;;;;;;;;;;24.59;52.64;100946.75;4995453;28;20042;-65
2021/07/12 01:59:24;;;;;;;4.40;3.20;;;;;;;24.61;52.79;100946.59;4995126;28;19973;-64
2021/07/12 02:01:52;;;;;;;4.68;3.78;;;;;;;24.56;52.84;100939.03;4995281;28;20458;-64
2021/07/12 02:04:25;;;;;;;5.00;3.17;;;;;;;24.56;52.76;100943.59;4995178;28;20112;-64
2021/07/12 02:06:53;;;;;;;4.13;3.30;;;;;;;24.57;52.92;100954.13;4995106;28;20474;-66
2021/07/12 02:09:21;;;;;;;3.50;3.13;;;;;;;24.54;53.11;100943.75;4994942;28;20054;-65
2021/07/12 02:11:49;;;;;;;6.72;3.53;;;;;;;24.49;53.30;100953.34;4994828;28;20101;-66
2021/07/12 02:14:18;;;;;;;3.60;3.25;;;;;;;24.41;53.73;100960.38;4994728;28;20479;-64
2021/07/12 02:16:49;;;;;;;4.65;3.35;;;;;;;24.25;54.50;100957.75;4993993;28;20499;-64
2021/07/12 02:19:19;;;;;;;5.63;3.58;;;;;;;24.20;54.52;100963.66;4994543;28;20050;-64
2021/07/12 02:21:47;;;;;;;9.85;4.35;;;;;;;24.20;54.82;100968.16;4994651;28;20105;-64
2021/07/12 02:24:17;;;;;;;4.85;4.00;;;;;;;24.19;54.94;100967.34;4994729;28;20054;-66
2021/07/12 02:26:45;;;;;;;5.60;3.50;;;;;;;24.15;55.27;100975.88;4994573;28;20654;-64
2021/07/12 02:29:14;;;;;;;5.25;3.65;;;;;;;24.12;55.02;100974.38;4994732;28;20050;-64
2021/07/12 02:31:41;;;;;;;4.80;3.78;;;;;;;24.11;55.24;100978.06;4994484;28;20097;-66
2021/07/12 02:34:10;;;;;;;6.97;3.80;;;;;;;24.09;55.44;100990.81;4994617;28;20133;-64
2021/07/12 02:36:37;;;;;;;5.20;3.90;;;;;;;24.09;55.70;100990.81;4994475;28;20047;-64
2021/07/12 02:39:07;;;;;;;7.22;3.95;;;;;;;24.07;55.65;100988.28;4994550;28;20042;-64
2021/07/12 02:41:34;;;;;;;4.93;3.70;;;;;;;24.08;56.06;100981.09;4994366;28;20401;-66
2021/07/12 02:44:05;;;;;;;4.40;3.70;;;;;;;24.03;56.14;100986.13;4994420;28;20458;-64
2021/07/12 02:46:52;;;;;;;6.30;3.53;;;;;;;23.96;56.25;100989.50;4994114;28;20053;-65
2021/07/12 02:49:19;;;;;;;5.85;3.92;;;;;;;23.95;56.55;100984.31;4994157;28;20050;-66
2021/07/12 02:51:52;;;;;;;7.50;4.03;;;;;;;23.91;56.46;100991.00;4994143;28;20482;-64
2021/07/12 02:54:24;;;;;;;4.25;3.60;;;;;;;23.93;56.45;100989.00;4994045;28;20050;-65
2021/07/12 02:56:51;;;;;;;9.55;4.00;;;;;;;23.90;56.43;100984.78;4994004;28;20702;-65
2021/07/12 02:59:18;;;;;;;5.70;3.50;;;;;;;23.89;56.19;100990.31;4994030;28;20054;-66
2021/07/12 03:01:44;;;;;;;4.75;3.42;;;;;;;23.89;56.14;100988.47;4992923;28;20082;-65
2021/07/12 03:04:17;;;;;;;6.53;3.63;;;;;;;23.89;56.25;100984.94;4989309;28;20042;-66
2021/07/12 03:06:57;;;;;;;4.50;3.53;;;;;;;23.87;56.27;100993.16;4990306;28;20073;-65
2021/07/12 03:09:46;;;;;;;5.30;3.58;;;;;;;23.87;56.52;100981.59;4990045;28;20129;-64
2021/07/12 03:12:27;;;;;;;5.55;3.20;;;;;;;23.85;56.56;100989.81;4990280;28;20078;-65
2021/07/12 03:15:08;;;;;;;5.35;3.40;;;;;;;23.86;56.56;100998.66;4990297;28;20473;-64
2021/07/12 03:17:39;;;;;;;5.90;2.80;;;;;;;23.82;56.70;100990.16;4990369;28;20046;-65
2021/07/12 03:20:07;;;;;;;4.95;3.15;;;;;;;23.83;56.82;100978.41;4990546;28;20043;-65
2021/07/12 03:22:35;;;;;;;5.05;2.83;;;;;;;23.84;56.81;100981.94;4990441;28;20050;-64
2021/07/12 03:25:04;;;;;;;4.55;2.70;;;;;;;23.82;56.84;100979.44;4990485;28;20050;-64
2021/07/12 03:27:32;;;;;;;4.03;2.92;;;;;;;23.88;56.10;100976.06;4990354;28;20534;-64
2021/07/12 03:30:01;;;;;;;6.13;2.97;;;;;;;23.89;56.13;100979.59;4990021;28;20050;-64
2021/07/12 03:32:33;;;;;;;7.30;3.28;;;;;;;23.85;55.95;100983.63;4990326;28;20050;-64
2021/07/12 03:35:00;;;;;;;6.60;3.40;;;;;;;23.80;56.25;100984.13;4989955;28;20077;-66
2021/07/12 03:37:35;;;;;;;4.95;2.80;;;;;;;23.77;56.30;100982.59;4990071;28;20054;-66
2021/07/12 03:40:02;;;;;;;7.43;3.28;;;;;;;23.73;56.46;100975.91;4990279;28;20069;-64
2021/07/12 03:42:29;;;;;;;4.60;3.00;;;;;;;23.74;56.37;100977.56;4990041;28;20047;-64
2021/07/12 03:44:56;;;;;;;6.32;3.17;;;;;;;23.72;56.31;100979.59;4990144;28;20097;-64
2021/07/12 03:47:30;;;;;;;4.05;2.90;;;;;;;23.72;56.61;100984.09;4989989;28;20050;-64
2021/07/12 03:50:12;;;;;;;5.03;2.67;;;;;;;23.70;56.55;100976.22;4989929;28;20047;-64
2021/07/12 03:52:49;;;;;;;3.92;3.00;;;;;;;23.67;56.55;100979.25;4989671;28;20449;-65
2021/07/12 03:55:20;;;;;;;6.07;3.28;;;;;;;23.70;56.51;100976.22;4990087;28;20096;-66
2021/07/12 03:57:47;;;;;;;4.32;3.03;;;;;;;23.69;57.06;100985.28;4989882;28;20054;-64
2021/07/12 04:00:16;;;;;;;4.60;2.90;;;;;;;23.68;56.99;100986.31;4990068;28;20043;-66
2021/07/12 04:02:44;;;;;;;7.07;3.40;;;;;;;23.64;57.34;100990.28;4989741;28;20050;-64
2021/07/12 04:05:11;;;;;;;10.98;3.55;;;;;;;23.64;57.29;100992.97;4990186;28;20100;-66
2021/07/12 04:07:39;;;;;;;5.10;3.10;;;;;;;23.64;57.29;100988.47;4989509;28;20061;-64
2021/07/12 04:10:11;;;;;;;6.15;3.50;;;;;;;23.69;57.15;100995.16;4989725;28;20050;-64
2021/07/12 04:12:40;;;;;;;7.40;3.05;;;;;;;23.71;57.32;100994.00;4989465;28;20565;-65
2021/07/12 04:15:08;;;;;;;5.63;2.88;;;;;;;23.72;57.16;101001.03;4989767;28;20054;-64
2021/07/12 04:17:37;;;;;;;6.82;3.00;;;;;;;23.73;57.09;101002.72;4989792;28;20100;-65
2021/07/12 04:20:05;;;;;;;5.10;2.80;;;;;;;23.78;56.85;101010.22;4988865;28;20050;-65
2021/07/12 04:22:32;;;;;;;6.05;2.72;;;;;;;23.80;56.71;101011.75;4989566;28;20105;-64
2021/07/12 04:24:59;;;;;;;5.43;3.20;;;;;;;23.80;56.95;101018.94;4989693;28;20073;-64
2021/07/12 04:27:26;;;;;;;3.42;2.50;;;;;;;23.83;56.67;101017.78;4989607;28;20511;-64
2021/07/12 04:29:52;;;;;;;6.65;3.00;;;;;;;23.85;56.58;101024.66;4989415;28;20550;-65
2021/07/12 04:32:21;;;;;;;3.50;2.13;;;;;;;23.88;56.19;101032.34;4989556;28;20050;-64
2021/07/12 04:34:51;;;;;;;5.75;2.58;;;;;;;23.92;55.91;101031.06;4989372;28;20121;-64
2021/07/12 04:37:17;;;;;;;3.67;2.35;;;;;;;23.98;55.77;101036.75;4989477;28;20046;-64
2021/07/12 04:39:44;;;;;;;3.78;2.00;;;;;;;24.05;55.46;101035.03;4989642;28;20120;-64
2021/07/12 04:42:11;;;;;;;2.75;1.98;;;;;;;24.11;55.36;101027.19;4993198;28;20046;-66
2021/07/12 04:44:43;;;;;;;2.90;1.50;;;;;;;24.15;55.24;101024.16;4993207;28;20047;-64
2021/07/12 04:47:10;;;;;;;2.85;1.70;;;;;;;24.19;54.87;101020.97;4993238;28;20113;-64
2021/07/12 04:49:36;;;;;;;3.08;1.75;;;;;;;24.20;54.71;101011.94;4993082;28;20050;-64
2021/07/12 04:52:04;;;;;;;1.60;1.50;;;;;;;24.23;54.55;101003.53;4993322;28;20557;-65
2021/07/12 04:54:31;;;;;;;2.13;1.50;;;;;;;24.28;53.91;100998.47;4992967;28;20065;-64
2021/07/12 04:56:57;;;;;;;2.45;1.50;;;;;;;24.35;54.05;100995.13;4992960;28;20182;-64
2021/07/12 04:59:28;;;;;;;2.38;1.65;;;;;;;24.41;53.98;100986.38;4992891;28;20136;-64
2021/07/12 05:01:55;;;;;;;3.17;1.73;;;;;;;24.46;53.86;100992.91;4992691;28;20108;-64
2021/07/12 05:04:22;;;;;;;6.05;2.30;;;;;;;24.51;53.53;100999.63;4992853;28;20491;-64
2021/07/12 05:06:49;;;;;;;3.53;1.70;;;;;;;24.56;53.43;100992.72;4992937;28;20050;-64
2021/07/12 05:09:18;;;;;;;3.30;1.35;;;;;;;24.60;53.34;100975.25;4992987;28;20054;-64
2021/07/12 05:11:45;;;;;;;3.70;1.40;;;;;;;24.64;53.41;100964.19;4992496;28;20565;-64
2021/07/12 05:14:11;;;;;;;1.92;1.25;;;;;;;24.72;53.01;100969.53;4992603;28;20077;-64
2021/07/12 05:16:39;;;;;;;3.63;1.48;;;;;;;24.77;52.63;100969.84;4992385;28;20065;-64
2021/07/12 05:19:17;;;;;;;4.80;1.73;;;;;;;24.83;51.99;100982.56;4992490;28;20505;-64
2021/07/12 05:21:45;;;;;;;3.22;1.52;;;;;;;24.87;51.92;100980.38;4992724;28;20046;-67
2021/07/12 05:24:13;;;;;;;2.40;1.50;;;;;;;24.75;51.77;100991.50;4992403;28;20103;-66
2021/07/12 05:26:39;;;;;;;3.08;1.58;;;;;;;24.86;51.76;101003.69;4992603;28;20043;-64
2021/07/12 05:29:06;;;;;;;5.65;1.88;;;;;;;24.87;51.67;100988.41;4992625;28;20047;-66
2021/07/12 05:31:32;;;;;;;7.30;1.75;;;;;;;24.85;51.92;100982.38;4992333;28;20479;-64
2021/07/12 05:34:02;;;;;;;3.97;1.55;;;;;;;24.89;51.92;100973.81;4992583;28;20462;-64
2021/07/12 05:36:28;;;;;;;5.00;1.58;;;;;;;24.89;52.02;100979.19;4992023;28;20186;-65
2021/07/12 05:38:55;;;;;;;2.15;1.48;;;;;;;24.94;52.03;100974.13;4992506;28;20138;-65
2021/07/12 05:41:28;;;;;;;4.30;1.67;;;;;;;25.04;51.79;100968.53;4991787;28;20388;-65
2021/07/12 05:43:59;;;;;;;2.33;1.50;;;;;;;25.16;51.84;100960.06;4989251;28;20046;-62
2021/07/12 05:46:29;;;;;;;4.53;1.52;;;;;;;25.28;51.63;100955.97;4992244;28;20050;-62
2021/07/12 05:48:56;;;;;;;1.95;1.20;;;;;;;25.39;51.26;100950.19;4991909;28;20054;-62
2021/07/12 05:51:22;;;;;;;1.88;1.58;;;;;;;25.48;50.82;100942.88;4992244;28;20120;-62
2021/07/12 05:53:49;;;;;;;1.40;1.23;;;;;;;25.61;50.27;100936.06;4991999;28;20498;-62
2021/07/12 05:56:16;;;;;;;3.58;1.30;;;;;;;25.71;50.08;100942.03;4991519;28;20046;-62
2021/07/12 05:58:43;;;;;;;4.00;1.42;;;;;;;25.76;49.53;100945.00;4991682;28;20086;-62
2021/07/12 06:01:11;;;;;;;3.15;1.40;;;;;;;25.82;49.18;100946.13;4991944;28;20050;-62
2021/07/12 06:03:38;;;;;;;6.00;2.05;;;;;;;25.89;49.23;100952.44;4991707;28;20046;-66
2021/07/12 06:06:04;;;;;;;3.00;1.50;;;;;;;26.12;48.49;100956.94;4991659;28;20100;-71
2021/07/12 06:08:31;;;;;;;2.72;1.55;;;;;;;25.99;48.75;100953.03;4991700;28;20109;-64
2021/07/12 06:10:58;;;;;;;3.58;1.40;;;;;;;26.13;48.25;100967.53;4991569;28;20105;-64
2021/07/12 06:13:24;;;;;;;4.72;1.58;;;;;;;26.21;47.90;100972.81;4992012;28;20043;-64
2021/07/12 06:15:51;;;;;;;1.85;1.38;;;;;;;26.17;48.00;100968.84;4991055;28;20650;-65
2021/07/12 06:18:17;;;;;;;3.90;1.65;;;;;;;26.29;47.47;100968.38;4991687;28;20051;-67
2021/07/12 06:20:45;;;;;;;4.88;1.90;;;;;;;26.36;47.46;100970.16;4991231;28;20050;-71
2021/07/12 06:23:11;;;;;;;2.20;2.00;;;;;;;26.36;47.67;100964.75;4991165;28;20050;-73
2021/07/12 06:25:38;;;;;;;4.18;2.00;;;;;;;26.47;47.49;100959.94;4990982;28;20050;-65
2021/07/12 06:28:05;;;;;;;3.83;2.45;;;;;;;26.56;47.56;100956.09;4990098;28;20058;-68
2021/07/12 06:30:35;;;;;;;4.35;2.30;;;;;;;26.65;47.56;100941.53;4987826;28;20545;-65
2021/07/12 06:33:03;;;;;;;3.88;2.83;;;;;;;26.74;47.77;100926.16;4990998;28;20096;-69
2021/07/12 06:35:32;;;;;;;3.53;2.88;;;;;;;26.81;47.77;100943.19;4991075;28;20073;-64
2021/07/12 06:37:58;;;;;;;3.22;2.50;;;;;;;26.88;47.81;100946.81;4991164;28;20054;-67
2021/07/12 06:40:25;;;;;;;5.72;3.00;;;;;;;26.98;47.88;100938.41;4990938;28;20057;-63
2021/07/12 06:42:51;;;;;;;5.43;3.17;;;;;;;27.00;48.19;100930.16;4990573;28;20082;-63
2021/07/12 06:45:19;;;;;;;4.63;2.92;;;;;;;27.08;48.17;100916.53;4991129;28;20049;-63
2021/07/12 06:47:46;;;;;;;4.35;3.05;;;;;;;27.19;48.42;100909.81;4990632;28;20132;-63
2021/07/12 06:50:13;;;;;;;5.13;3.30;;;;;;;27.24;48.66;100901.16;4991165;28;20050;-69
2021/07/12 06:52:41;;;;;;;4.88;3.10;;;;;;;27.26;48.78;100897.25;4990626;28;20050;-71
2021/07/12 06:55:08;;;;;;;5.68;3.33;;;;;;;27.30;48.81;100890.44;4970274;28;20625;-70
2021/07/12 06:57:34;;;;;;;5.05;3.33;;;;;;;27.41;48.83;100893.66;4981943;28;20346;-63
2021/07/12 07:00:01;;;;;;;5.68;3.30;;;;;;;27.41;49.01;100894.47;4989052;28;20053;-70
2021/07/12 07:02:31;;;;;;;6.15;3.80;;;;;;;27.48;49.16;100898.06;4989943;28;20065;-64
2021/07/12 07:04:58;;;;;;;5.32;3.90;;;;;;;27.58;49.29;100888.81;4989312;28;20100;-69
2021/07/12 07:07:24;;;;;;;6.13;3.60;;;;;;;27.57;49.53;100889.84;4989812;28;20050;-64
2021/07/12 07:09:51;;;;;;;7.18;3.92;;;;;;;27.64;49.61;100888.03;4988727;28;20712;-63
2021/07/12 07:12:17;;;;;;;7.50;4.47;;;;;;;27.72;49.77;100887.03;4990701;28;20042;-70
2021/07/12 07:14:47;;;;;;;6.60;3.78;;;;;;;27.82;49.75;100884.81;4990150;28;20116;-68
2021/07/12 07:17:14;;;;;;;6.57;3.88;;;;;;;27.90;50.06;100876.59;4989638;28;20050;-64
2021/07/12 07:19:40;;;;;;;7.80;3.90;;;;;;;28.00;49.96;100862.75;4989450;28;20081;-66
2021/07/12 07:22:07;;;;;;;8.10;4.25;;;;;;;28.13;49.70;100864.69;4989978;28;20042;-66
2021/07/12 07:24:36;;;;;;;5.70;3.92;;;;;;;28.22;49.68;100865.38;4989254;28;20046;-65
2021/07/12 07:27:03;;;;;;;5.65;4.10;;;;;;;28.32;49.55;100850.44;4989763;28;20198;-63
2021/07/12 07:29:37;;;;;;;4.05;3.60;;;;;;;28.42;49.37;100858.16;4990171;28;20046;-63
2021/07/12 07:32:06;;;;;;;5.82;4.18;;;;;;;28.54;48.91;100860.28;4990144;28;20050;-68
2021/07/12 07:34:41;;;;;;;4.45;3.60;;;;;;;28.65;48.41;100868.63;4989820;28;20086;-66
2021/07/12 07:37:09;;;;;;;4.75;3.92;;;;;;;28.78;48.11;100859.72;4989846;28;20492;-63
2021/07/12 07:39:37;;;;;;;6.95;3.80;;;;;;;28.92;47.69;100866.00;4989512;28;20054;-63
2021/07/12 07:42:20;;;;;;;9.38;4.93;;;;;;;29.00;47.34;100875.75;4989696;28;20096;-63
2021/07/12 07:44:47;;;;;;;7.10;3.72;;;;;;;28.88;47.60;100901.75;4989809;28;20454;-63
2021/07/12 07:47:17;;;;;;;5.28;4.07;;;;;;;28.67;48.18;100901.69;4989134;28;20514;-63
2021/07/12 07:49:44;;;;;;;5.43;3.47;;;;;;;28.47;48.44;100919.66;4989880;28;20468;-66
2021/07/12 07:52:11;;;;;;;5.93;3.90;;;;;;;28.31;48.97;100915.44;4989578;28;20050;-63
2021/07/12 07:54:38;;;;;;;9.40;4.00;;;;;;;28.15;49.35;100909.34;4989581;28;20104;-65
2021/07/12 07:57:04;;;;;;;5.63;3.75;;;;;;;28.03;49.52;100916.31;4989536;28;20104;-65
2021/07/12 07:59:31;;;;;;;5.88;3.90;;;;;;;27.99;49.87;100923.13;4989480;28;20108;-65
2021/07/12 08:02:00;;;;;;;6.45;4.28;;;;;;;28.17;49.27;100928.03;4989503;28;20042;-64
2021/07/12 08:04:46;;;;;;;5.05;3.85;;;;;;;28.61;47.84;100921.38;4989700;28;20043;-64
2021/07/12 08:07:12;;;;;;;3.95;3.55;;;;;;;28.88;47.41;100907.16;4989677;28;20495;-63
2021/07/12 08:09:39;;;;;;;4.43;3.47;;;;;;;29.07;47.30;100905.53;4989334;28;20054;-64
2021/07/12 08:12:06;;;;;;;6.90;3.85;;;;;;;29.15;46.65;100905.31;4989504;28;20077;-65
2021/07/12 08:14:32;;;;;;;5.72;3.65;;;;;;;29.27;46.34;100919.88;4989131;28;20495;-65
2021/07/12 08:17:02;;;;;;;4.20;3.30;;;;;;;29.37;46.05;100927.63;4992722;28;20120;-65
2021/07/12 08:19:34;;;;;;;4.85;3.50;;;;;;;29.46;45.83;100930.94;4993344;28;20061;-65
2021/07/12 08:22:06;;;;;;;7.80;3.90;;;;;;;29.61;45.82;100942.38;4993167;28;20046;-65
2021/07/12 08:24:33;;;;;;;4.53;3.65;;;;;;;29.75;45.55;100939.66;4993526;28;20046;-65
2021/07/12 08:27:01;;;;;;;4.90;3.92;;;;;;;29.85;45.08;100928.41;4993532;28;20046;-65
2021/07/12 08:29:28;;;;;;;4.00;3.58;;;;;;;29.94;45.22;100919.03;4993693;28;20054;-65
2021/07/12 08:31:55;;;;;;;6.93;3.70;;;;;;;30.04;45.00;100921.31;4993105;28;20050;-66
2021/07/12 08:34:22;;;;;;;8.50;3.40;;;;;;;30.08;44.25;100927.97;4993664;28;20046;-60
2021/07/12 08:36:48;;;;;;;4.35;3.50;;;;;;;30.13;44.36;100920.03;4993325;28;20104;-65
2021/07/12 08:39:15;;;;;;;7.25;4.10;;;;;;;30.26;44.08;100935.44;4992924;28;20527;-65
2021/07/12 08:41:42;;;;;;;9.57;4.15;;;;;;;30.34;43.91;100937.88;4992869;28;20165;-65
2021/07/12 08:44:09;;;;;;;6.97;3.72;;;;;;;30.45;43.76;100945.34;4992938;28;20120;-65
2021/07/12 08:46:36;;;;;;;5.50;3.38;;;;;;;30.56;43.53;100941.19;4992913;28;20050;-65
2021/07/12 08:49:03;;;;;;;6.15;3.50;;;;;;;30.58;43.46;100930.94;4990180;28;20053;-63
2021/07/12 08:51:29;;;;;;;5.00;3.63;;;;;;;30.68;42.90;100929.63;4987688;28;20096;-63
2021/07/12 08:53:56;;;;;;;6.38;3.75;;;;;;;30.73;42.68;100927.97;4992900;28;20054;-63
2021/07/12 08:56:23;;;;;;;5.43;3.58;;;;;;;30.87;42.82;100927.91;4992934;28;20054;-62
2021/07/12 08:58:50;;;;;;;5.72;4.05;;;;;;;30.91;42.80;100931.81;4992647;28;20055;-63
2021/07/12 09:01:16;;;;;;;3.90;3.30;;;;;;;30.98;42.61;100929.88;4992379;28;20479;-63
2021/07/12 09:03:46;;;;;;;6.63;3.58;;;;;;;31.15;42.01;100923.97;4992924;28;20380;-63
2021/07/12 09:06:33;;;;;;;6.05;3.83;;;;;;;31.25;42.32;100916.19;4992266;28;20177;-63
2021/07/12 09:09:04;;;;;;;4.10;3.17;;;;;;;31.34;42.32;100919.44;4989825;28;20502;-63
2021/07/12 09:11:39;;;;;;;4.90;3.88;;;;;;;31.40;41.73;100911.28;4992396;28;20043;-63
2021/07/12 09:14:13;;;;;;;6.55;3.40;;;;;;;31.51;41.63;100912.41;4992863;28;20050;-65
2021/07/12 09:16:47;;;;;;;7.35;3.72;;;;;;;31.58;41.20;100909.66;4990977;28;20050;-65
2021/07/12 09:19:23;;;;;;;6.65;3.85;;;;;;;31.71;41.02;100909.53;4992409;28;20137;-64
2021/07/12 09:22:00;;;;;;;6.13;3.85;;;;;;;31.85;40.69;100907.53;4992503;28;20054;-63
2021/07/12 09:24:34;;;;;;;3.75;3.38;;;;;;;32.01;40.13;100911.53;4992526;28;20462;-65
2021/07/12 09:27:09;;;;;;;3.85;3.28;;;;;;;32.12;40.32;100909.13;4991853;28;20050;-65
2021/07/12 09:29:40;;;;;;;3.25;2.88;;;;;;;32.23;40.24;100916.56;4992059;28;20383;-66
2021/07/12 09:32:12;;;;;;;4.53;3.25;;;;;;;32.33;39.38;100911.41;4991873;28;20050;-64
2021/07/12 09:34:42;;;;;;;5.05;3.47;;;;;;;32.47;39.36;100906.63;4991815;28;20129;-66
2021/07/12 09:37:13;;;;;;;3.78;3.20;;;;;;;32.60;39.16;100912.94;4991788;28;20097;-64
2021/07/12 09:39:43;;;;;;;5.03;3.00;;;;;;;32.62;39.14;100911.66;4990921;28;20057;-64
2021/07/12 09:42:14;;;;;;;4.35;3.40;;;;;;;32.73;38.44;100912.75;4989204;28;20487;-64
2021/07/12 09:45:05;;;;;;;4.22;3.28;;;;;;;32.89;38.64;100911.31;4991652;28;20100;-64
2021/07/12 09:47:34;;;;;;;5.18;3.60;;;;;;;33.02;38.44;100908.38;4991431;28;20062;-65
2021/07/12 09:50:09;;;;;;;8.02;4.10;;;;;;;33.17;38.55;100909.84;4991745;28;20475;-65
2021/07/12 09:52:47;;;;;;;;;;;;;;;33.25;38.11;100905.94;4991849;28;20093;-65
2021/07/12 09:55:45;;;;;;;6.25;3.35;;;;;;;33.40;38.34;100898.19;4992196;28;19926;-64
2021/07/12 09:58:13;;;;;;;7.15;3.30;;;;;;;33.49;38.16;100902.19;4991748;28;20540;-65
2021/07/12 10:00:48;;;;;;;5.05;3.38;;;;;;;33.57;37.55;100902.91;4991313;28;20054;-65
2021/07/12 10:03:17;;;;;;;5.18;3.38;;;;;;;33.62;37.36;100903.84;4991547;28;20553;-65
2021/07/12 10:05:44;;;;;;;4.55;3.50;;;;;;;33.73;37.29;100921.25;4991306;28;20047;-65
2021/07/12 10:08:15;;;;;;;5.05;3.03;;;;;;;33.79;36.92;100914.00;4991405;28;20092;-64
2021/07/12 10:10:42;;;;;;;5.13;3.42;;;;;;;33.87;36.85;100918.31;4991316;28;20054;-65
2021/07/12 10:13:09;;;;;;;6.63;3.20;;;;;;;34.02;36.47;100918.66;4991360;28;20050;-65
2021/07/12 10:15:39;;;;;;;4.70;2.90;;;;;;;34.09;36.21;100922.06;4991036;28;20058;-64
2021/07/12 10:18:07;;;;;;;4.60;3.45;;;;;;;34.15;36.42;100925.72;4991027;28;20513;-65
2021/07/12 10:20:35;;;;;;;3.65;2.80;;;;;;;34.21;36.04;100924.78;4990996;28;20111;-65
2021/07/12 10:23:04;;;;;;;4.35;3.15;;;;;;;34.28;35.47;100922.72;4990788;28;20133;-64
2021/07/12 10:25:33;;;;;;;4.00;3.20;;;;;;;34.41;35.30;100924.38;4990689;28;20053;-64
2021/07/12 10:28:07;;;;;;;4.63;2.78;;;;;;;34.39;35.11;100917.53;4991375;28;20109;-65
2021/07/12 10:30:47;;;;;;;6.47;3.47;;;;;;;34.45;35.64;100917.38;4990977;28;20073;-65
2021/07/12 10:33:17;;;;;;;7.28;3.70;;;;;;;34.55;35.36;100915.91;4990921;28;20050;-65
2021/07/12 10:35:52;;;;;;;7.53;3.33;;;;;;;34.67;35.51;100920.22;4990752;28;20054;-64
2021/07/12 10:38:24;;;;;;;3.20;2.88;;;;;;;34.80;35.50;100910.91;4990113;28;20503;-65
2021/07/12 10:40:56;;;;;;;6.72;2.90;;;;;;;34.94;35.03;100925.09;4990492;28;20054;-65
2021/07/12 10:44:03;;;;;;;3.65;2.90;;;;;;;35.13;34.91;100919.44;4990600;28;20569;-64
2021/07/12 10:46:30;;;;;;;4.20;3.10;;;;;;;35.15;35.02;100920.84;4990723;28;20069;-64
2021/07/12 10:49:04;;;;;;;3.60;3.13;;;;;;;35.18;34.68;100924.97;4990853;28;20133;-64
2021/07/12 10:51:37;;;;;;;7.30;3.80;;;;;;;34.92;34.98;100918.25;4990495;28;20100;-64
2021/07/12 10:54:04;;;;;;;4.18;3.20;;;;;;;35.19;34.74;100906.72;4990487;28;20047;-64
2021/07/12 10:56:59;;;;;;;4.85;3.05;;;;;;;35.30;34.61;100909.34;4990408;28;20488;-65
2021/07/12 10:59:27;;;;;;;4.63;3.22;;;;;;;35.41;34.17;100904.06;4990461;28;20108;-64
2021/07/12 11:01:55;;;;;;;4.90;3.47;;;;;;;35.44;34.39;100903.56;4990281;28;20732;-64
2021/07/12 11:04:50;;;;;;;3.70;3.13;;;;;;;35.51;34.10;100903.41;4990535;28;20078;-65
2021/07/12 11:07:18;;;;;;;;;;;;;;;35.68;34.43;100887.84;4990880;28;20046;-65
2021/07/12 11:10:03;;;;;;;4.28;3.08;;;;;;;35.74;33.84;100886.81;4990402;28;19922;-64
2021/07/12 11:12:37;;;;;;;3.78;3.17;;;;;;;35.83;33.63;100881.72;4990332;28;20054;-64
2021/07/12 11:15:33;;;;;;;5.18;2.80;;;;;;;35.94;33.67;100872.63;4990000;28;20050;-64
2021/07/12 11:18:26;;;;;;;4.35;3.22;;;;;;;36.01;33.84;100868.88;4990339;28;20054;-65
2021/07/12 11:21:01;;;;;;;5.68;3.22;;;;;;;36.00;33.83;100857.13;4989889;28;20125;-64
2021/07/12 11:23:55;;;;;;;5.47;2.83;;;;;;;36.04;33.85;100861.00;4989988;28;20050;-64
2021/07/12 11:26:23;;;;;;;4.70;3.20;;;;;;;36.05;33.67;100859.94;4990001;28;20046;-64
2021/07/12 11:28:59;;;;;;;3.53;2.92;;;;;;;36.05;33.87;100857.19;4989964;28;20046;-64
2021/07/12 11:31:43;;;;;;;4.95;2.80;;;;;;;36.10;33.58;100856.41;4989762;28;20054;-65
2021/07/12 11:34:13;;;;;;;;;;;;;;;36.17;33.17;100856.22;4990297;28;20507;-64
2021/07/12 11:36:57;;;;;;;2.30;2.00;;;;;;;36.02;33.07;100851.41;4989670;28;20329;-64
2021/07/12 11:39:41;;;;;;;3.03;2.25;;;;;;;36.16;31.92;100860.03;4989661;28;20050;-65
2021/07/12 11:42:11;;;;;;;;;;;;;;;36.13;31.75;100851.25;4990199;28;20311;-64
2021/07/12 11:44:38;;;;;;;3.15;2.47;;;;;;;36.37;31.11;100848.28;4989559;28;19925;-64